CheckWX is a tool to help pilots better visualize weather data.  It is not intended as a substitute for an official pre-flight weather briefing.

21:19:23 UTC

OJAM TAF
Amman-Marka International Airport
Amman, Jordan
TAF OJAM 291652Z 2918/3024 28006KT 4000 HZ FEW020 SCT030 TEMPO 2918/3006 VRB02KT 2000 BR PROB30 3002/3006 1000

Jan-29@
18:00 UTC

Jan-29 @ 18:00 UTC

Jan-31@
00:00 UTC

Jan-31 @ 00:00 UTC

TAF OJAM 291652Z 2918/3024 28006KT 4000 HZ FEW020 SCT030
Wind
  • 280° at 6 KTS
Conditions
Haze
Cloud Levels
  • Few at 2,000' AGL
  • Scattered at 3,000' AGL

Jan-29@
18:00 UTC

Jan-29 @ 18:00 UTC

Jan-30@
06:00 UTC

Jan-30 @ 06:00 UTC

TEMPO 2918/3006 VRB02KT 2000 BR

Temporary

Temporary Changes expected for less than half the time period

Wind
  • Variable at 2 KTS
Conditions
Mist

Jan-30@
02:00 UTC

Jan-30 @ 02:00 UTC

Jan-30@
06:00 UTC

Jan-30 @ 06:00 UTC

PROB30 3002/3006 1000

Probable - 30% Likelihood

Probable - 30% Likelihood during this time.